createdAt,value
2023-04-17T00:02:45.097Z,7.90
2023-04-17T00:06:47.964Z,7.81
2023-04-17T00:11:00.655Z,7.90
2023-04-17T00:15:10.747Z,8.14
2023-04-17T00:19:13.635Z,8.35
2023-04-17T00:23:16.563Z,8.18
2023-04-17T00:27:20.754Z,8.01
2023-04-17T00:31:25.017Z,8.32
2023-04-17T00:35:27.708Z,8.06
2023-04-17T00:39:30.894Z,7.94
2023-04-17T00:43:34.940Z,8.08
2023-04-17T00:47:37.827Z,8.31
2023-04-17T00:51:40.805Z,8.24
2023-04-17T00:55:44.421Z,8.31
2023-04-17T00:59:49.078Z,8.14
2023-04-17T01:03:52.225Z,8.20
2023-04-17T01:07:55.333Z,8.22
2023-04-17T01:12:19.736Z,8.20
2023-04-17T01:16:24.036Z,8.19
2023-04-17T01:20:31.118Z,8.20
2023-04-17T01:24:35.522Z,8.20
2023-04-17T01:28:38.404Z,8.35
2023-04-17T01:32:41.553Z,8.25
2023-04-17T01:36:44.273Z,8.20
2023-04-17T01:40:49.009Z,8.23
2023-04-17T01:44:51.929Z,8.12
2023-04-17T01:48:55.205Z,8.13
2023-04-17T01:52:58.020Z,8.08
2023-04-17T01:57:02.837Z,8.05
2023-04-17T02:01:06.238Z,8.14
2023-04-17T02:05:09.305Z,7.90
2023-04-17T02:09:12.307Z,7.94
2023-04-17T02:13:16.991Z,7.93
2023-04-17T02:17:19.844Z,7.88
2023-04-17T02:21:22.809Z,7.77
2023-04-17T02:25:25.552Z,7.87
2023-04-17T02:29:29.816Z,7.88
2023-04-17T02:33:32.614Z,7.71
2023-04-17T02:37:35.458Z,7.68
2023-04-17T02:41:38.180Z,7.67
2023-04-17T02:45:42.589Z,7.66
2023-04-17T02:49:45.265Z,7.73
2023-04-17T02:53:49.158Z,7.86
2023-04-17T02:57:51.664Z,7.79
2023-04-17T03:01:59.856Z,7.79
2023-04-17T03:06:02.964Z,7.87
2023-04-17T03:10:06.430Z,7.52
2023-04-17T03:14:09.085Z,7.59
2023-04-17T03:18:13.653Z,7.44
2023-04-17T03:22:16.514Z,7.55
2023-04-17T03:26:19.519Z,7.32
2023-04-17T03:30:22.649Z,7.24
2023-04-17T03:34:28.389Z,7.19
2023-04-17T03:38:31.497Z,7.23
2023-04-17T03:42:34.163Z,6.93
2023-04-17T03:46:37.072Z,6.89
2023-04-17T03:50:41.312Z,6.96
2023-04-17T03:54:44.009Z,7.18
2023-04-17T03:58:47.597Z,7.32
2023-04-17T04:02:50.770Z,7.21
2023-04-17T04:06:57.987Z,7.24
2023-04-17T04:11:01.415Z,7.33
2023-04-17T04:15:04.497Z,7.38
2023-04-17T04:19:07.140Z,7.35
2023-04-17T04:23:11.270Z,7.36
2023-04-17T04:27:18.142Z,7.38
2023-04-17T04:31:21.093Z,7.26
2023-04-17T04:35:25.953Z,7.21
2023-04-17T04:39:30.380Z,7.30
2023-04-17T04:43:34.027Z,7.14
2023-04-17T04:47:37.314Z,7.18
2023-04-17T04:51:40.662Z,7.17
2023-04-17T04:55:44.923Z,7.20
2023-04-17T04:59:47.612Z,7.31
2023-04-17T05:03:50.487Z,7.55
2023-04-17T05:07:53.562Z,7.58
2023-04-17T05:11:57.970Z,7.33
2023-04-17T05:16:01.651Z,7.51
2023-04-17T05:20:06.941Z,7.36
2023-04-17T05:24:09.843Z,7.11
2023-04-17T05:28:16.291Z,7.21
2023-04-17T05:32:19.953Z,7.54
2023-04-17T05:36:23.064Z,7.57
2023-04-17T05:40:25.921Z,7.62
2023-04-17T05:44:29.998Z,7.78
2023-04-17T05:48:32.752Z,7.78
2023-04-17T05:52:36.972Z,7.84
2023-04-17T05:56:41.765Z,7.80
2023-04-17T06:00:46.317Z,7.82
2023-04-17T06:04:49.370Z,7.87
2023-04-17T06:08:54.398Z,8.12
2023-04-17T06:12:57.062Z,8.06
2023-04-17T06:17:01.585Z,8.34
2023-04-17T06:21:04.692Z,8.35
2023-04-17T06:25:08.568Z,8.40
2023-04-17T06:29:12.749Z,8.71
2023-04-17T06:33:17.045Z,8.68
2023-04-17T06:37:19.754Z,9.37
2023-04-17T06:41:22.483Z,9.38
2023-04-17T06:45:25.156Z,9.71
2023-04-17T06:49:29.369Z,9.43
2023-04-17T06:53:32.007Z,9.81
2023-04-17T06:57:34.640Z,9.94
2023-04-17T07:01:38.264Z,9.84
2023-04-17T07:05:42.214Z,10.06
2023-04-17T07:09:45.312Z,10.34
2023-04-17T07:13:48.039Z,10.28
2023-04-17T07:17:50.714Z,9.92
2023-04-17T07:21:54.733Z,10.74
2023-04-17T07:25:57.432Z,10.43
2023-04-17T07:30:00.087Z,10.38
2023-04-17T07:34:02.840Z,10.80
2023-04-17T07:38:06.912Z,10.83
2023-04-17T07:42:11.322Z,11.11
2023-04-17T07:46:14.072Z,10.80
2023-04-17T07:50:16.754Z,10.63
2023-04-17T07:54:20.775Z,10.63
2023-04-17T07:58:24.186Z,11.12
2023-04-17T08:02:27.043Z,11.43
2023-04-17T08:06:29.706Z,11.35
2023-04-17T08:10:34.060Z,11.15
2023-04-17T08:14:36.713Z,11.39
2023-04-17T08:18:39.702Z,11.18
2023-04-17T08:22:42.727Z,11.07
2023-04-17T08:26:47.204Z,11.10
2023-04-17T08:30:49.927Z,11.08
2023-04-17T08:34:52.620Z,11.01
2023-04-17T08:38:55.352Z,11.06
2023-04-17T08:43:00.860Z,10.93
2023-04-17T08:47:04.694Z,11.31
2023-04-17T08:51:07.954Z,11.64
2023-04-17T08:55:11.242Z,12.07
2023-04-17T08:59:15.358Z,11.63
2023-04-17T09:03:18.192Z,11.40
2023-04-17T09:07:29.635Z,11.27
2023-04-17T09:11:32.339Z,11.34
2023-04-17T09:15:37.649Z,11.66
2023-04-17T09:20:06.481Z,11.92
2023-04-17T09:24:10.070Z,12.24
2023-04-17T09:28:14.692Z,11.95
2023-04-17T09:32:19.039Z,12.07
2023-04-17T09:36:22.613Z,11.66
2023-04-17T09:40:26.094Z,11.66
2023-04-17T09:44:30.160Z,11.52
2023-04-17T09:48:34.461Z,11.58
2023-04-17T09:52:37.669Z,11.41
2023-04-17T09:56:41.181Z,11.31
2023-04-17T10:00:44.113Z,11.34
2023-04-17T10:04:48.644Z,11.26
2023-04-17T10:08:51.732Z,11.37
2023-04-17T10:12:57.142Z,11.51
2023-04-17T10:16:59.961Z,11.23
2023-04-17T10:21:22.949Z,11.47
2023-04-17T10:25:26.977Z,11.15
2023-04-17T10:29:53.431Z,11.59
2023-04-17T10:33:56.117Z,11.56
2023-04-17T10:38:07.954Z,11.28
2023-04-17T10:42:19.374Z,11.01
2023-04-17T10:46:27.063Z,11.11
2023-04-17T10:50:30.014Z,11.23
2023-04-17T10:54:35.208Z,11.27
2023-04-17T10:58:57.687Z,11.45
2023-04-17T11:03:01.753Z,11.53
2023-04-17T11:07:04.704Z,11.71
2023-04-17T11:11:12.206Z,12.02
2023-04-17T11:15:15.047Z,12.73
2023-04-17T11:19:20.121Z,12.81
2023-04-17T11:23:22.749Z,13.10
2023-04-17T11:27:26.764Z,12.47
2023-04-17T11:31:30.199Z,12.93
2023-04-17T11:35:34.112Z,13.30
2023-04-17T11:39:36.854Z,13.72
2023-04-17T11:43:40.861Z,12.24
2023-04-17T11:47:43.614Z,12.54
2023-04-17T11:51:46.806Z,13.29
2023-04-17T11:55:49.976Z,13.54
2023-04-17T11:59:54.012Z,13.35
2023-04-17T12:03:57.560Z,13.06
2023-04-17T12:08:02.436Z,13.21
2023-04-17T12:12:06.825Z,13.15
2023-04-17T12:16:10.917Z,13.06
2023-04-17T12:20:14.208Z,13.25
2023-04-17T12:24:18.178Z,13.31
2023-04-17T12:28:22.091Z,12.94
2023-04-17T12:32:26.133Z,12.84
2023-04-17T12:36:28.917Z,12.76
2023-04-17T12:40:32.840Z,12.55
2023-04-17T12:44:35.616Z,12.43
2023-04-17T12:48:39.949Z,12.23
2023-04-17T12:52:42.926Z,12.52
2023-04-17T12:56:45.553Z,12.45
2023-04-17T13:00:48.203Z,12.55
2023-04-17T13:04:53.587Z,12.61
2023-04-17T13:08:56.479Z,13.00
2023-04-17T13:12:59.401Z,12.70
2023-04-17T13:17:02.523Z,12.68
2023-04-17T13:21:07.898Z,12.63
2023-04-17T13:25:11.276Z,12.29
2023-04-17T13:29:15.821Z,12.36
2023-04-17T13:33:20.537Z,12.27
2023-04-17T13:37:25.772Z,13.03
2023-04-17T13:41:28.533Z,12.70
2023-04-17T13:45:31.354Z,13.69
2023-04-17T13:49:34.110Z,13.42
2023-04-17T13:53:38.190Z,13.13
2023-04-17T13:57:40.851Z,13.04
2023-04-17T14:01:43.523Z,13.04
2023-04-17T14:05:46.532Z,12.88
2023-04-17T14:09:50.559Z,12.45
2023-04-17T14:13:53.567Z,12.47
2023-04-17T14:17:56.372Z,12.43
2023-04-17T14:21:59.045Z,12.35
2023-04-17T14:26:03.209Z,12.02
2023-04-17T14:30:07.029Z,11.93
2023-04-17T14:34:09.776Z,11.79
2023-04-17T14:38:12.447Z,11.60
2023-04-17T14:42:16.449Z,11.44
2023-04-17T14:46:19.299Z,11.48
2023-04-17T14:50:22.151Z,11.56
2023-04-17T14:54:24.839Z,11.74
2023-04-17T14:58:29.448Z,11.97
2023-04-17T15:02:38.087Z,11.82
2023-04-17T15:06:40.986Z,12.23
2023-04-17T15:10:50.786Z,12.46
2023-04-17T15:14:56.421Z,12.29
2023-04-17T15:18:59.103Z,12.00
2023-04-17T15:23:01.821Z,12.32
2023-04-17T15:27:04.667Z,12.09
2023-04-17T15:31:08.873Z,12.23
2023-04-17T15:35:11.749Z,12.74
2023-04-17T15:39:14.680Z,12.69
2023-04-17T15:43:17.577Z,12.93
2023-04-17T15:47:21.590Z,12.78
2023-04-17T15:51:24.649Z,12.58
2023-04-17T15:55:27.332Z,12.44
2023-04-17T15:59:30.032Z,12.29
2023-04-17T16:03:34.284Z,12.10
2023-04-17T16:07:37.115Z,11.93
2023-04-17T16:11:39.766Z,11.91
2023-04-17T16:15:42.582Z,11.61
2023-04-17T16:19:48.362Z,11.58
2023-04-17T16:23:52.948Z,11.50
2023-04-17T16:27:55.748Z,11.38
2023-04-17T16:31:59.735Z,11.41
2023-04-17T16:36:04.022Z,11.47
2023-04-17T16:40:07.997Z,11.48
2023-04-17T16:44:11.579Z,11.53
2023-04-17T16:48:14.572Z,11.53
2023-04-17T16:52:18.651Z,11.36
2023-04-17T16:56:21.342Z,11.37
2023-04-17T17:00:24.288Z,11.22
2023-04-17T17:04:27.298Z,11.34
2023-04-17T17:08:31.647Z,10.94
2023-04-17T17:12:34.679Z,10.97
2023-04-17T17:16:37.467Z,10.95
2023-04-17T17:20:40.241Z,11.16
2023-04-17T17:24:45.162Z,10.90
2023-04-17T17:30:26.927Z,10.87
2023-04-17T17:34:30.568Z,10.71
2023-04-17T17:38:33.416Z,10.76
2023-04-17T17:42:36.446Z,10.61
2023-04-17T17:46:41.535Z,10.47
2023-04-17T17:50:44.879Z,10.19
2023-04-17T17:54:47.958Z,10.26
2023-04-17T17:58:51.205Z,10.40
2023-04-17T18:02:56.350Z,10.16
2023-04-17T18:06:59.398Z,9.83
2023-04-17T18:11:02.635Z,9.89
2023-04-17T18:15:06.347Z,9.48
2023-04-17T18:19:10.526Z,9.57
2023-04-17T18:23:13.806Z,9.59
2023-04-17T18:27:16.966Z,9.67
2023-04-17T18:31:21.892Z,9.78
2023-04-17T18:35:26.230Z,9.93
2023-04-17T18:39:29.293Z,9.79
2023-04-17T18:43:32.611Z,9.54
2023-04-17T18:47:35.551Z,9.72
2023-04-17T18:51:39.942Z,9.67
2023-04-17T18:55:42.912Z,9.69
2023-04-17T18:59:46.703Z,9.70
2023-04-17T19:03:51.446Z,9.59
2023-04-17T19:07:56.376Z,9.60
2023-04-17T19:11:59.500Z,9.53
2023-04-17T19:16:02.671Z,9.56
2023-04-17T19:20:06.826Z,9.61
2023-04-17T19:24:11.324Z,9.49
2023-04-17T19:28:14.534Z,9.37
2023-04-17T19:32:17.945Z,9.29
2023-04-17T19:36:21.078Z,9.21
2023-04-17T19:40:26.254Z,9.46
2023-04-17T19:44:29.815Z,9.68
2023-04-17T19:48:33.013Z,9.60
2023-04-17T19:52:36.130Z,9.44
2023-04-17T21:59:29.663Z,8.27
2023-04-17T22:12:21.006Z,7.96
2023-04-17T22:25:18.946Z,7.98
2023-04-17T22:29:21.806Z,7.82
2023-04-17T22:33:32.122Z,7.63
2023-04-17T22:37:34.763Z,7.83
2023-04-17T22:41:41.161Z,7.71
2023-04-17T22:45:44.587Z,7.74
2023-04-17T23:37:38.400Z,8.05
2023-04-17T23:41:42.839Z,7.35
2023-04-17T23:45:45.542Z,7.40
2023-04-17T23:55:44.496Z,7.61
